Flight Track Log - Related Links

Times and Time Zones

All times are in EDT time to prevent confusion due to time zone crossing. See the N560HM flight status page for this flight to view local times or setup timezone preferences in your user account.

Time Position Orientation Groundspeed Altitude Reporting Facility
EDT Latitude Longitude Course Direction KTS MPH feet Rate Location/Type
Sat 11:33:26 AM 40.3342 -79.9853 194° South 222 255 3,300  Level Cleveland Center
Sat 11:34:27 AM 40.2747 -80.0092 197° South 217 250 5,700 2,341 Climbing Cleveland Center
Sat 11:35:29 AM 40.2067 -80.0239 189° South 241 277 8,100 2,585 Climbing Cleveland Center
Sat 11:36:30 AM 40.1281 -80.0408 189° South 279 321 11,000 2,803 Climbing Cleveland Center
Sat 11:37:31 AM 40.0478 -80.0625 192° South 288 331 13,800 2,634 Climbing Cleveland Center
Sat 11:38:00 AM 39.6561 -80.1369 194° South  Level FlightAware Approximate
Sat 11:38:33 AM 39.9628 -80.0836 191° South 308 354 16,400  Level Cleveland Center
Sat 11:39:34 AM 39.8739 -80.1072 192° South 323 372 18,900 2,311 Climbing Cleveland Center
Sat 11:40:35 AM 39.7808 -80.1306 191° South 339 390 21,100 2,146 Climbing Cleveland Center
Sat 11:41:37 AM 39.6869 -80.1547 191° South 343 395 23,300 2,195 Climbing Cleveland Center
Sat 11:42:38 AM 39.5772 -80.1831 191° South 351 404 25,600 1,918 Climbing Cleveland Center
Sat 11:43:39 AM 39.4731 -80.2114 192° South 362 417 27,200 1,534 Climbing Cleveland Center
Sat 11:44:51 AM 39.3497 -80.2431 191° South 375 432 29,000 1,191 Climbing Washington Center
Sat 11:45:55 AM 39.2419 -80.2703 191° South 389 448 29,900 480 Climbing Washington Center
Sat 11:46:56 AM 39.1244 -80.2814 184° South 420 483 30,000 435 Climbing Washington Center
Sat 11:47:59 AM 38.9917 -80.2611 173° South 443 510 30,800 484 Climbing Washington Center
Sat 11:49:00 AM 38.8739 -80.2328 169° South 443 510 31,000 492 Climbing Washington Center
Sat 11:50:01 AM 38.7547 -80.2019 169° South 446 513 31,800 1,258 Climbing Washington Center
Sat 11:51:04 AM 38.6236 -80.2114 183° South 406 467 33,600 1,559 Climbing Washington Center
Sat 11:52:08 AM 38.5158 -80.2250 186° South 402 463 35,100 1,500 Climbing Washington Center
Sat 11:53:08 AM 38.4144 -80.2356 185° South 382 440 36,700 1,574 Climbing Washington Center
Sat 11:54:10 AM 38.2967 -80.2481 185° South 365 420 38,300 1,200 Climbing Washington Center
Sat 11:55:13 AM 38.2025 -80.2656 188° South 353 406 39,200 677 Climbing Washington Center
Sat 11:56:14 AM 38.1047 -80.2803 187° South 360 414 39,700 387 Climbing Washington Center
Sat 11:57:17 AM 37.9858 -80.3003 188° South 366 421 40,000 145 Climbing Washington Center
Sat 11:58:18 AM 37.8828 -80.3169 187° South 381 438 40,000  Level Washington Center
Sat 11:59:22 AM 37.7775 -80.3342 187° South 389 448 40,000  Level Washington Center
Sat 12:00:22 PM 37.6481 -80.3561 188° South 399 459 40,000  Level Washington Center
Sat 12:01:26 PM 37.5422 -80.3731 187° South 397 457 40,000  Level Washington Center
Sat 12:02:27 PM 37.4314 -80.3908 187° South 406 467 40,000  Level Washington Center
Sat 12:03:28 PM 37.3031 -80.4128 188° South 404 465 40,000  Level Washington Center
Sat 12:04:32 PM 37.1956 -80.4306 188° South 402 463 40,000  Level Washington Center
Sat 12:05:35 PM 37.0908 -80.4475 187° South 395 455 40,000  Level Washington Center
Sat 12:06:36 PM 36.9625 -80.4672 187° South 395 455 40,000  Level Washington Center
Sat 12:07:37 PM 36.8569 -80.4839 187° South 395 455 40,000  Level Washington Center
Sat 12:08:46 PM 36.7206 -80.5064 188° South 406 467 40,000  Level Atlanta Center
Sat 12:09:46 PM 36.6211 -80.5211 187° South 406 467 40,000  Level Atlanta Center
Sat 12:10:46 PM 36.5089 -80.5389 187° South 406 467 40,000  Level Atlanta Center
Sat 12:11:46 PM 36.4008 -80.5539 186° South 406 467 40,000  Level Atlanta Center
Sat 12:12:46 PM 36.2889 -80.5742 188° South 406 467 40,000  Level Atlanta Center
Sat 12:13:46 PM 36.1725 -80.5919 187° South 406 467 40,000  Level Atlanta Center
Sat 12:14:46 PM 36.0625 -80.6097 187° South 406 467 40,000  Level Atlanta Center
Sat 12:15:46 PM 35.9503 -80.6272 187° South 406 467 40,000  Level Atlanta Center
Sat 12:16:46 PM 35.8403 -80.6472 188° South 406 467 40,000  Level Atlanta Center
Sat 12:17:46 PM 35.7303 -80.6619 186° South 406 467 40,000  Level Atlanta Center
Sat 12:18:46 PM 35.6181 -80.6794 187° South 406 467 40,000  Level Atlanta Center
Sat 12:19:46 PM 35.5289 -80.6958 189° South 406 467 40,000  Level Atlanta Center
Sat 12:20:46 PM 35.4083 -80.7133 187° South 406 467 40,000  Level Atlanta Center
Sat 12:23:06 PM 35.1492 -80.7525 187° South 397 457 40,000  Level Jacksonville Center
Sat 12:24:06 PM 35.0369 -80.7731 189° South 402 463 40,000  Level Jacksonville Center
Sat 12:25:06 PM 34.9286 -80.7883 187° South 408 470 40,000  Level Jacksonville Center
Sat 12:26:06 PM 34.8183 -80.8039 187° South 408 470 40,000  Level Jacksonville Center
Sat 12:27:06 PM 34.7061 -80.8267 189° South 408 470 40,000  Level Jacksonville Center
Sat 12:28:06 PM 34.6000 -80.8369 185° South 402 463 40,000  Level Jacksonville Center
Sat 12:29:06 PM 34.4794 -80.8600 189° South 402 463 40,000  Level Jacksonville Center
Sat 12:30:06 PM 34.3731 -80.8725 186° South 402 463 40,000  Level Jacksonville Center
Sat 12:31:06 PM 34.2669 -80.8925 189° South 397 457 40,000  Level Jacksonville Center
Sat 12:32:06 PM 34.1589 -80.9050 185° South 392 451 40,000  Level Jacksonville Center
Sat 12:33:06 PM 34.0528 -80.9250 189° South 392 451 40,000  Level Jacksonville Center
Sat 12:34:06 PM 33.9444 -80.9400 187° South 391 450 40,000  Level Jacksonville Center
Sat 12:35:06 PM 33.8361 -80.9547 186° South 391 450 40,000  Level Jacksonville Center
Sat 12:36:06 PM 33.7278 -80.9697 187° South 391 450 40,000  Level Jacksonville Center
Sat 12:37:06 PM 33.6194 -80.9772 183° South 391 450 40,000  Level Jacksonville Center
Sat 12:38:06 PM 33.5069 -80.9844 183° South 391 450 40,000  Level Jacksonville Center
Sat 12:39:06 PM 33.3983 -80.9917 183° South 391 450 40,000  Level Jacksonville Center
Sat 12:40:06 PM 33.2983 -80.9964 182° South 398 458 40,000  Level Jacksonville Center
Sat 12:41:06 PM 33.1900 -81.0036 183° South 398 458 40,000  Level Jacksonville Center
Sat 12:42:06 PM 33.0814 -81.0108 183° South 398 458 40,000  Level Jacksonville Center
Sat 12:43:06 PM 32.9753 -81.0181 183° South 398 458 40,000  Level Jacksonville Center
Sat 12:44:06 PM 32.8647 -81.0228 182° South 398 458 40,000  Level Jacksonville Center
Sat 12:45:06 PM 32.7561 -81.0300 183° South 398 458 40,000  Level Jacksonville Center
Sat 12:46:06 PM 32.6497 -81.0372 183° South 398 458 40,000  Level Jacksonville Center
Sat 12:47:06 PM 32.5414 -81.0444 183° South 398 458 40,000  Level Jacksonville Center
Sat 12:48:06 PM 32.4328 -81.0489 182° South 393 452 40,000  Level Jacksonville Center
Sat 12:49:06 PM 32.3286 -81.0561 183° South 381 438 40,000  Level Jacksonville Center
Sat 12:50:06 PM 32.2139 -81.0583 181° South 386 444 40,000  Level Jacksonville Center
Sat 12:51:06 PM 32.1075 -81.0678 184° South 397 457 40,000  Level Jacksonville Center
Sat 12:52:06 PM 31.9989 -81.0725 182° South 402 463 40,000  Level Jacksonville Center
Sat 12:53:06 PM 31.8822 -81.0797 183° South 402 463 40,000  Level Jacksonville Center
Sat 12:54:06 PM 31.7758 -81.0867 183° South 383 441 40,000  Level Jacksonville Center
Sat 12:55:06 PM 31.6797 -81.0933 183° South 389 448 40,000  Level Jacksonville Center
Sat 12:56:06 PM 31.5608 -81.0981 182° South 384 442 40,000  Level Jacksonville Center
Sat 12:57:06 PM 31.4650 -81.1047 183° South 384 442 40,000  Level Jacksonville Center
Sat 12:58:06 PM 31.3586 -81.1092 182° South 384 442 40,000  Level Jacksonville Center
Sat 12:59:06 PM 31.2417 -81.1189 184° South 384 442 40,000  Level Jacksonville Center
Sat 01:00:06 PM 31.1353 -81.1256 183° South 384 442 40,000  Level Jacksonville Center
Sat 01:01:06 PM 31.0269 -81.1325 183° South 384 442 40,000  Level Jacksonville Center
Sat 01:02:06 PM 30.9206 -81.1369 182° South 384 442 40,000  Level Jacksonville Center
Sat 01:03:06 PM 30.8119 -81.1436 183° South 384 442 40,000  Level Jacksonville Center
Sat 01:04:06 PM 30.7056 -81.1481 182° South 384 442 40,000  Level Jacksonville Center
Sat 01:05:06 PM 30.5992 -81.1550 183° South 384 442 40,000  Level Jacksonville Center
Sat 01:06:06 PM 30.4883 -81.1497 178° South 389 448 40,000  Level Jacksonville Center
Sat 01:07:06 PM 30.3778 -81.1444 178° South 394 453 40,000  Level Jacksonville Center
Sat 01:08:06 PM 30.2669 -81.1417 179° South 399 459 40,000 -350 Level Jacksonville Center
Sat 01:09:06 PM 30.1519 -81.1172 170° South 409 471 39,300 -900 Descending Jacksonville Center
Sat 01:10:06 PM 30.0322 -81.0789 165° South 422 486 38,200 -1,100 Descending Jacksonville Center
Sat 01:11:06 PM 29.9128 -81.0428 165° South 436 502 37,100 -1,000 Descending Jacksonville Center
Sat 01:12:06 PM 29.7933 -81.0042 164° South 442 509 36,200 -550 Descending Jacksonville Center
Sat 01:13:06 PM 29.6758 -80.9706 166° South 442 509 36,000 -100 Descending Jacksonville Center
Sat 01:14:06 PM 29.5564 -80.9325 165° South 442 509 36,000  Level Jacksonville Center
Sat 01:15:06 PM 29.4431 -80.8989 166° South 431 496 36,000  Level Jacksonville Center
Sat 01:16:09 PM 29.3192 -80.8664 167° South 444 511 36,000  Level Miami Center
Sat 01:17:09 PM 29.2033 -80.8311 165° South 452 520 36,000  Level Miami Center
Sat 01:18:09 PM 29.0894 -80.7986 166° South 435 501 36,000  Level Miami Center
Sat 01:19:09 PM 28.9778 -80.7639 165° South 424 488 36,000  Level Miami Center
Sat 01:20:09 PM 28.8786 -80.7319 164° South 424 488 36,000 -200 Level Miami Center
Sat 01:21:09 PM 28.7542 -80.6967 166° South 413 475 35,600 -1,100 Descending Miami Center
Sat 01:22:09 PM 28.6411 -80.6383 156° South 428 493 33,800 -2,000 Descending Miami Center
Sat 01:23:09 PM 28.5286 -80.5567 147° Southeast 461 531 31,600 -2,227 Descending Miami Center
Sat 01:24:21 PM 28.4117 -80.4678 146° Southeast 473 544 28,900 -2,409 Descending Miami Center
Sat 01:25:21 PM 28.2908 -80.3861 149° Southeast 461 531 26,300 -2,300 Descending Miami Center
Sat 01:26:21 PM 28.1747 -80.3542 166° South 440 506 24,300 -2,000 Descending Miami Center
Sat 01:27:21 PM 28.0625 -80.3250 167° South 424 488 22,300 -1,950 Descending Miami Center
Sat 01:28:21 PM 27.9650 -80.3008 168° South 407 468 20,400 -1,950 Descending Miami Center
Sat 01:29:21 PM 27.8469 -80.2692 167° South 402 463 18,400 -1,800 Descending Miami Center
Sat 01:30:21 PM 27.7431 -80.2447 168° South 390 449 16,800 -1,500 Descending Miami Center
Sat 01:31:21 PM 27.6475 -80.2208 168° South 370 426 15,400 -900 Descending Miami Center
Sat 01:32:21 PM 27.5561 -80.1994 168° South 352 405 15,000 -807 Descending Miami Center
Sat 01:33:20 PM 27.4753 -80.1783 167° South 338 389 13,800 -2,000 Descending Miami Center
Sat 01:34:21 PM 27.3819 -80.1522 166° South 326 375 11,000 -1,884 Descending Miami Center
Sat 01:35:21 PM 27.3008 -80.1383 171° South 305 351 10,000 -700 Descending Miami Center
Sat 01:36:21 PM 27.2239 -80.1197 168° South 290 334 9,600 -950 Descending Miami Center
Sat 01:37:21 PM 27.1581 -80.0853 155° Southeast 285 328 8,100 -1,500 Descending Miami Center
Sat 01:38:21 PM 27.0856 -80.0506 157° South 285 328 6,600 -1,500 Descending Miami Center
Sat 01:39:21 PM 27.0133 -80.0136 155° Southeast 266 306 5,100 -800 Descending Miami Center
Sat 01:40:21 PM 26.9511 -79.9933 164° South 255 293 5,000 -50 Descending Miami Center
Sat 01:41:21 PM 26.8939 -80.0361 214° Southwest 227 261 5,000 -550 Level Miami Center
Sat 01:42:21 PM 26.8469 -80.0767 218° Southwest 240 276 3,900 -1,100 Descending Miami Center
Sat 01:44:00 PM 26.7916 -80.2353 265° West  Level FlightAware Approximate
Sat 01:51:00 PM 26.6832 -80.0956 110° East  Level Estimated
Sat 01:52:00 PM 26.6832 -80.0956 110° East  Level Estimated
Sat 01:53:00 PM 26.6832 -80.0956 110° East  Level Estimated
Sat 01:54:00 PM 26.6832 -80.0956 110° East  Level Estimated
Sat 01:55:00 PM 26.6832 -80.0956 110° East  Level Estimated

Login

Don't have an account? Register now (free) for customized features, flight alerts, and more!